Kalac, Russia
Current Conditions -  °F | °C
As of 3:30 AM on Thursday 18 Dec 2014 (Local Time) from UUOO Reporting Station
Light Rain Light Rain  
Wind Chill: 29°   Ceiling: 700
Heat Index: 37°   Visibility: 4mi
Dew Point: 36°   Wind: 13mph
Humidity: 93%   Direction: 180°S
Pressure: 29.8"   Gusts: NA
Location:  50.41°N, 41.01°E
Report Text: UUOO 180030Z 18006MPS 6000 -RA OVC007 03/02 Q1009 NOSIG RMK12290150
Loading
Personal Weather Stations






























Interactive Weather Map New forecast layout! Learn more

10-Day Weather Forecast

Advertisements
Track Severe Weather on mobile